sensor_id;sensor_type;location;lat;lon;timestamp;P1;durP1;ratioP1;P2;durP2;ratioP2
32323;SDS011;25666;44.350;9.222;2023-03-01T00:01:22;4.32;;;2.40;;
32323;SDS011;25666;44.350;9.222;2023-03-01T00:03:50;5.80;;;3.08;;
32323;SDS011;25666;44.350;9.222;2023-03-01T00:06:16;5.40;;;3.00;;
32323;SDS011;25666;44.350;9.222;2023-03-01T00:08:42;5.75;;;2.47;;
32323;SDS011;25666;44.350;9.222;2023-03-01T00:11:18;4.40;;;2.75;;
32323;SDS011;25666;44.350;9.222;2023-03-01T00:13:46;6.45;;;2.92;;
32323;SDS011;25666;44.350;9.222;2023-03-01T00:16:17;10.02;;;2.50;;
32323;SDS011;25666;44.350;9.222;2023-03-01T00:18:50;6.40;;;3.20;;
32323;SDS011;25666;44.350;9.222;2023-03-01T00:21:17;5.15;;;2.25;;
32323;SDS011;25666;44.350;9.222;2023-03-01T00:23:44;5.20;;;2.83;;
32323;SDS011;25666;44.350;9.222;2023-03-01T00:26:11;8.85;;;2.60;;
32323;SDS011;25666;44.350;9.222;2023-03-01T00:28:39;6.25;;;2.65;;
32323;SDS011;25666;44.350;9.222;2023-03-01T00:31:05;4.05;;;2.60;;
32323;SDS011;25666;44.350;9.222;2023-03-01T00:33:32;5.50;;;2.78;;
32323;SDS011;25666;44.350;9.222;2023-03-01T00:35:58;4.35;;;2.47;;
32323;SDS011;25666;44.350;9.222;2023-03-01T00:38:24;3.13;;;2.30;;
32323;SDS011;25666;44.350;9.222;2023-03-01T00:40:51;4.47;;;2.20;;
32323;SDS011;25666;44.350;9.222;2023-03-01T00:43:16;5.10;;;3.03;;
32323;SDS011;25666;44.350;9.222;2023-03-01T00:45:42;4.18;;;2.35;;
32323;SDS011;25666;44.350;9.222;2023-03-01T00:48:07;5.13;;;2.58;;
32323;SDS011;25666;44.350;9.222;2023-03-01T00:50:33;3.90;;;2.20;;
32323;SDS011;25666;44.350;9.222;2023-03-01T00:52:58;4.40;;;2.45;;
32323;SDS011;25666;44.350;9.222;2023-03-01T00:55:24;5.63;;;2.83;;
32323;SDS011;25666;44.350;9.222;2023-03-01T00:57:50;4.20;;;2.42;;
32323;SDS011;25666;44.350;9.222;2023-03-01T01:00:16;6.32;;;2.70;;
32323;SDS011;25666;44.350;9.222;2023-03-01T01:02:42;5.00;;;2.83;;
32323;SDS011;25666;44.350;9.222;2023-03-01T01:05:08;4.53;;;2.20;;
32323;SDS011;25666;44.350;9.222;2023-03-01T01:07:33;4.40;;;2.33;;
32323;SDS011;25666;44.350;9.222;2023-03-01T01:09:59;4.68;;;2.67;;
32323;SDS011;25666;44.350;9.222;2023-03-01T01:12:24;4.10;;;2.58;;
32323;SDS011;25666;44.350;9.222;2023-03-01T01:14:50;3.88;;;2.22;;
32323;SDS011;25666;44.350;9.222;2023-03-01T01:17:15;4.57;;;2.30;;
32323;SDS011;25666;44.350;9.222;2023-03-01T01:19:41;4.03;;;2.38;;
32323;SDS011;25666;44.350;9.222;2023-03-01T01:22:06;4.63;;;2.78;;
32323;SDS011;25666;44.350;9.222;2023-03-01T01:24:32;4.22;;;2.35;;
32323;SDS011;25666;44.350;9.222;2023-03-01T01:26:57;5.85;;;3.10;;
32323;SDS011;25666;44.350;9.222;2023-03-01T01:29:23;3.78;;;2.58;;
32323;SDS011;25666;44.350;9.222;2023-03-01T01:31:48;6.38;;;3.20;;
32323;SDS011;25666;44.350;9.222;2023-03-01T01:34:19;4.60;;;2.60;;
32323;SDS011;25666;44.350;9.222;2023-03-01T01:36:48;5.85;;;2.58;;
32323;SDS011;25666;44.350;9.222;2023-03-01T01:39:14;5.97;;;2.88;;
32323;SDS011;25666;44.350;9.222;2023-03-01T01:41:41;6.00;;;3.10;;
32323;SDS011;25666;44.350;9.222;2023-03-01T01:47:05;6.22;;;3.33;;
32323;SDS011;25666;44.350;9.222;2023-03-01T01:49:41;5.68;;;2.88;;
32323;SDS011;25666;44.350;9.222;2023-03-01T01:52:23;5.22;;;2.63;;
32323;SDS011;25666;44.350;9.222;2023-03-01T01:55:05;6.78;;;3.10;;
32323;SDS011;25666;44.350;9.222;2023-03-01T01:57:36;5.13;;;2.67;;
32323;SDS011;25666;44.350;9.222;2023-03-01T02:00:12;8.38;;;2.55;;
32323;SDS011;25666;44.350;9.222;2023-03-01T02:02:40;5.32;;;2.80;;
32323;SDS011;25666;44.350;9.222;2023-03-01T02:05:13;5.80;;;2.92;;
32323;SDS011;25666;44.350;9.222;2023-03-01T02:07:47;9.02;;;2.65;;
32323;SDS011;25666;44.350;9.222;2023-03-01T02:10:18;7.70;;;3.13;;
32323;SDS011;25666;44.350;9.222;2023-03-01T02:12:45;6.10;;;2.88;;
32323;SDS011;25666;44.350;9.222;2023-03-01T02:15:11;4.40;;;2.67;;
32323;SDS011;25666;44.350;9.222;2023-03-01T02:17:36;4.05;;;2.53;;
32323;SDS011;25666;44.350;9.222;2023-03-01T02:20:18;6.40;;;2.88;;
32323;SDS011;25666;44.350;9.222;2023-03-01T02:23:01;4.88;;;2.95;;
32323;SDS011;25666;44.350;9.222;2023-03-01T02:25:28;5.38;;;3.00;;
32323;SDS011;25666;44.350;9.222;2023-03-01T02:30:38;8.13;;;3.10;;
32323;SDS011;25666;44.350;9.222;2023-03-01T02:33:25;6.25;;;3.47;;
32323;SDS011;25666;44.350;9.222;2023-03-01T02:35:52;5.72;;;3.00;;
32323;SDS011;25666;44.350;9.222;2023-03-01T02:38:19;5.85;;;3.25;;
32323;SDS011;25666;44.350;9.222;2023-03-01T02:40:46;9.25;;;3.65;;
32323;SDS011;25666;44.350;9.222;2023-03-01T02:43:13;7.95;;;3.50;;
32323;SDS011;25666;44.350;9.222;2023-03-01T02:45:43;6.28;;;3.63;;
32323;SDS011;25666;44.350;9.222;2023-03-01T02:48:13;7.10;;;3.67;;
32323;SDS011;25666;44.350;9.222;2023-03-01T02:50:47;8.18;;;3.45;;
32323;SDS011;25666;44.350;9.222;2023-03-01T02:56:00;6.50;;;3.63;;
32323;SDS011;25666;44.350;9.222;2023-03-01T02:58:26;7.15;;;4.03;;
32323;SDS011;25666;44.350;9.222;2023-03-01T03:00:52;8.00;;;3.35;;
32323;SDS011;25666;44.350;9.222;2023-03-01T03:03:19;9.55;;;3.13;;
32323;SDS011;25666;44.350;9.222;2023-03-01T03:05:47;6.53;;;2.75;;
32323;SDS011;25666;44.350;9.222;2023-03-01T03:08:13;8.02;;;3.38;;
32323;SDS011;25666;44.350;9.222;2023-03-01T03:10:42;8.52;;;3.20;;
32323;SDS011;25666;44.350;9.222;2023-03-01T03:13:09;5.68;;;3.22;;
32323;SDS011;25666;44.350;9.222;2023-03-01T03:15:36;6.72;;;3.63;;
32323;SDS011;25666;44.350;9.222;2023-03-01T03:18:04;7.25;;;3.60;;
32323;SDS011;25666;44.350;9.222;2023-03-01T03:20:32;8.82;;;3.85;;
32323;SDS011;25666;44.350;9.222;2023-03-01T03:22:58;8.50;;;3.40;;
32323;SDS011;25666;44.350;9.222;2023-03-01T03:25:24;6.68;;;3.13;;
32323;SDS011;25666;44.350;9.222;2023-03-01T03:27:51;5.32;;;2.95;;
32323;SDS011;25666;44.350;9.222;2023-03-01T03:30:22;7.18;;;3.03;;
32323;SDS011;25666;44.350;9.222;2023-03-01T03:32:55;8.90;;;3.15;;
32323;SDS011;25666;44.350;9.222;2023-03-01T03:35:24;4.72;;;3.17;;
32323;SDS011;25666;44.350;9.222;2023-03-01T03:38:01;5.97;;;2.80;;
32323;SDS011;25666;44.350;9.222;2023-03-01T03:40:35;5.38;;;3.10;;
32323;SDS011;25666;44.350;9.222;2023-03-01T03:43:06;6.53;;;3.50;;
32323;SDS011;25666;44.350;9.222;2023-03-01T03:45:37;7.07;;;3.40;;
32323;SDS011;25666;44.350;9.222;2023-03-01T03:48:03;6.43;;;3.42;;
32323;SDS011;25666;44.350;9.222;2023-03-01T03:50:30;7.03;;;3.60;;
32323;SDS011;25666;44.350;9.222;2023-03-01T03:52:56;6.30;;;3.05;;
32323;SDS011;25666;44.350;9.222;2023-03-01T03:55:21;4.75;;;3.03;;
32323;SDS011;25666;44.350;9.222;2023-03-01T03:57:47;8.75;;;3.63;;
32323;SDS011;25666;44.350;9.222;2023-03-01T04:00:22;6.47;;;3.00;;
32323;SDS011;25666;44.350;9.222;2023-03-01T04:02:49;7.35;;;3.83;;
32323;SDS011;25666;44.350;9.222;2023-03-01T04:05:16;5.43;;;3.10;;
32323;SDS011;25666;44.350;9.222;2023-03-01T04:07:43;7.40;;;3.28;;
32323;SDS011;25666;44.350;9.222;2023-03-01T04:10:10;4.68;;;2.35;;
32323;SDS011;25666;44.350;9.222;2023-03-01T04:12:37;11.68;;;3.30;;
32323;SDS011;25666;44.350;9.222;2023-03-01T04:15:03;5.80;;;3.42;;
32323;SDS011;25666;44.350;9.222;2023-03-01T04:17:41;7.93;;;4.43;;
32323;SDS011;25666;44.350;9.222;2023-03-01T04:20:13;5.47;;;3.22;;
32323;SDS011;25666;44.350;9.222;2023-03-01T04:22:42;5.05;;;3.10;;
32323;SDS011;25666;44.350;9.222;2023-03-01T04:25:11;7.88;;;3.17;;
32323;SDS011;25666;44.350;9.222;2023-03-01T04:27:39;6.55;;;3.00;;
32323;SDS011;25666;44.350;9.222;2023-03-01T04:30:05;8.43;;;3.97;;
32323;SDS011;25666;44.350;9.222;2023-03-01T04:32:31;6.10;;;3.05;;
32323;SDS011;25666;44.350;9.222;2023-03-01T04:34:56;7.65;;;3.22;;
32323;SDS011;25666;44.350;9.222;2023-03-01T04:37:23;6.80;;;3.75;;
32323;SDS011;25666;44.350;9.222;2023-03-01T04:39:49;6.13;;;3.67;;
32323;SDS011;25666;44.350;9.222;2023-03-01T04:42:15;4.80;;;2.67;;
32323;SDS011;25666;44.350;9.222;2023-03-01T04:44:42;5.40;;;2.80;;
32323;SDS011;25666;44.350;9.222;2023-03-01T04:47:11;6.80;;;2.60;;
32323;SDS011;25666;44.350;9.222;2023-03-01T04:49:36;4.25;;;2.63;;
32323;SDS011;25666;44.350;9.222;2023-03-01T04:52:02;6.40;;;3.30;;
32323;SDS011;25666;44.350;9.222;2023-03-01T04:54:29;7.78;;;3.05;;
32323;SDS011;25666;44.350;9.222;2023-03-01T04:56:55;6.75;;;3.00;;
32323;SDS011;25666;44.350;9.222;2023-03-01T04:59:20;7.30;;;3.63;;
32323;SDS011;25666;44.350;9.222;2023-03-01T05:01:49;5.18;;;2.65;;
32323;SDS011;25666;44.350;9.222;2023-03-01T05:04:15;5.90;;;2.95;;
32323;SDS011;25666;44.350;9.222;2023-03-01T05:06:40;5.10;;;3.00;;
32323;SDS011;25666;44.350;9.222;2023-03-01T05:09:06;5.65;;;3.28;;
32323;SDS011;25666;44.350;9.222;2023-03-01T05:11:31;5.85;;;3.08;;
32323;SDS011;25666;44.350;9.222;2023-03-01T05:14:01;5.75;;;3.13;;
32323;SDS011;25666;44.350;9.222;2023-03-01T05:16:27;5.57;;;2.95;;
32323;SDS011;25666;44.350;9.222;2023-03-01T05:18:53;8.88;;;3.33;;
32323;SDS011;25666;44.350;9.222;2023-03-01T05:21:20;5.28;;;2.85;;
32323;SDS011;25666;44.350;9.222;2023-03-01T05:23:46;8.02;;;3.72;;
32323;SDS011;25666;44.350;9.222;2023-03-01T05:26:12;8.38;;;3.38;;
32323;SDS011;25666;44.350;9.222;2023-03-01T05:28:38;6.63;;;2.88;;
32323;SDS011;25666;44.350;9.222;2023-03-01T05:31:03;12.13;;;3.22;;
32323;SDS011;25666;44.350;9.222;2023-03-01T05:33:35;4.55;;;2.83;;
32323;SDS011;25666;44.350;9.222;2023-03-01T05:36:02;5.47;;;2.83;;
32323;SDS011;25666;44.350;9.222;2023-03-01T05:38:27;6.95;;;3.13;;
32323;SDS011;25666;44.350;9.222;2023-03-01T05:40:53;5.63;;;3.13;;
32323;SDS011;25666;44.350;9.222;2023-03-01T05:43:18;6.05;;;2.88;;
32323;SDS011;25666;44.350;9.222;2023-03-01T05:45:44;5.88;;;2.95;;
32323;SDS011;25666;44.350;9.222;2023-03-01T05:48:10;5.88;;;2.72;;
32323;SDS011;25666;44.350;9.222;2023-03-01T05:50:40;4.70;;;2.72;;
32323;SDS011;25666;44.350;9.222;2023-03-01T05:53:11;5.75;;;2.83;;
32323;SDS011;25666;44.350;9.222;2023-03-01T05:55:38;5.07;;;2.85;;
32323;SDS011;25666;44.350;9.222;2023-03-01T05:58:05;6.47;;;3.17;;
32323;SDS011;25666;44.350;9.222;2023-03-01T06:00:34;5.15;;;2.78;;
32323;SDS011;25666;44.350;9.222;2023-03-01T06:03:00;6.18;;;3.08;;
32323;SDS011;25666;44.350;9.222;2023-03-01T06:05:25;4.75;;;2.80;;
32323;SDS011;25666;44.350;9.222;2023-03-01T06:07:51;5.82;;;3.17;;
32323;SDS011;25666;44.350;9.222;2023-03-01T06:10:18;6.68;;;3.13;;
32323;SDS011;25666;44.350;9.222;2023-03-01T06:12:45;5.97;;;3.10;;
32323;SDS011;25666;44.350;9.222;2023-03-01T06:15:12;7.60;;;2.60;;
32323;SDS011;25666;44.350;9.222;2023-03-01T06:17:39;9.43;;;3.38;;
32323;SDS011;25666;44.350;9.222;2023-03-01T06:20:08;6.13;;;3.30;;
32323;SDS011;25666;44.350;9.222;2023-03-01T06:22:35;4.78;;;2.65;;
32323;SDS011;25666;44.350;9.222;2023-03-01T06:25:01;4.22;;;2.72;;
32323;SDS011;25666;44.350;9.222;2023-03-01T06:27:28;7.95;;;3.00;;
32323;SDS011;25666;44.350;9.222;2023-03-01T06:29:53;6.10;;;2.92;;
32323;SDS011;25666;44.350;9.222;2023-03-01T06:32:19;5.32;;;2.95;;
32323;SDS011;25666;44.350;9.222;2023-03-01T06:34:45;6.72;;;3.25;;
32323;SDS011;25666;44.350;9.222;2023-03-01T06:37:10;9.30;;;3.00;;
32323;SDS011;25666;44.350;9.222;2023-03-01T06:39:36;5.07;;;3.17;;
32323;SDS011;25666;44.350;9.222;2023-03-01T06:42:02;4.75;;;2.40;;
32323;SDS011;25666;44.350;9.222;2023-03-01T06:44:28;8.35;;;3.30;;
32323;SDS011;25666;44.350;9.222;2023-03-01T06:46:53;7.20;;;3.47;;
32323;SDS011;25666;44.350;9.222;2023-03-01T06:49:19;5.70;;;3.28;;
32323;SDS011;25666;44.350;9.222;2023-03-01T06:51:45;6.72;;;3.20;;
32323;SDS011;25666;44.350;9.222;2023-03-01T06:54:11;11.13;;;2.78;;
32323;SDS011;25666;44.350;9.222;2023-03-01T06:56:36;7.20;;;3.88;;
32323;SDS011;25666;44.350;9.222;2023-03-01T06:59:02;6.55;;;3.33;;
32323;SDS011;25666;44.350;9.222;2023-03-01T07:01:28;5.43;;;3.17;;
32323;SDS011;25666;44.350;9.222;2023-03-01T07:03:54;7.10;;;3.58;;
32323;SDS011;25666;44.350;9.222;2023-03-01T07:06:20;8.88;;;4.05;;
32323;SDS011;25666;44.350;9.222;2023-03-01T07:08:46;8.90;;;4.25;;
32323;SDS011;25666;44.350;9.222;2023-03-01T07:11:12;8.43;;;4.15;;
32323;SDS011;25666;44.350;9.222;2023-03-01T07:13:38;9.10;;;3.60;;
32323;SDS011;25666;44.350;9.222;2023-03-01T07:16:03;7.63;;;3.60;;
32323;SDS011;25666;44.350;9.222;2023-03-01T07:18:29;6.38;;;3.50;;
32323;SDS011;25666;44.350;9.222;2023-03-01T07:20:55;9.10;;;4.20;;
32323;SDS011;25666;44.350;9.222;2023-03-01T07:23:20;7.15;;;3.95;;
32323;SDS011;25666;44.350;9.222;2023-03-01T07:25:52;5.07;;;3.10;;
32323;SDS011;25666;44.350;9.222;2023-03-01T07:28:22;7.80;;;3.55;;
32323;SDS011;25666;44.350;9.222;2023-03-01T07:30:48;5.10;;;3.05;;
32323;SDS011;25666;44.350;9.222;2023-03-01T07:33:14;7.93;;;4.10;;
32323;SDS011;25666;44.350;9.222;2023-03-01T07:35:39;7.97;;;3.70;;
32323;SDS011;25666;44.350;9.222;2023-03-01T07:38:05;7.80;;;3.70;;
32323;SDS011;25666;44.350;9.222;2023-03-01T07:40:30;9.77;;;3.80;;
32323;SDS011;25666;44.350;9.222;2023-03-01T07:42:56;6.85;;;3.72;;
32323;SDS011;25666;44.350;9.222;2023-03-01T07:45:23;9.05;;;3.85;;
32323;SDS011;25666;44.350;9.222;2023-03-01T07:47:50;8.05;;;3.38;;
32323;SDS011;25666;44.350;9.222;2023-03-01T07:50:16;9.25;;;3.92;;
32323;SDS011;25666;44.350;9.222;2023-03-01T07:52:44;7.40;;;3.45;;
32323;SDS011;25666;44.350;9.222;2023-03-01T07:55:10;6.72;;;3.53;;
32323;SDS011;25666;44.350;9.222;2023-03-01T07:57:35;9.18;;;3.50;;
32323;SDS011;25666;44.350;9.222;2023-03-01T08:00:01;8.13;;;2.95;;
32323;SDS011;25666;44.350;9.222;2023-03-01T08:02:37;8.27;;;3.65;;
32323;SDS011;25666;44.350;9.222;2023-03-01T08:05:03;6.93;;;3.53;;
32323;SDS011;25666;44.350;9.222;2023-03-01T08:07:29;8.90;;;4.20;;
32323;SDS011;25666;44.350;9.222;2023-03-01T08:09:54;9.00;;;3.42;;
32323;SDS011;25666;44.350;9.222;2023-03-01T08:12:20;7.50;;;3.42;;
32323;SDS011;25666;44.350;9.222;2023-03-01T08:14:45;11.40;;;3.53;;
32323;SDS011;25666;44.350;9.222;2023-03-01T08:17:13;10.63;;;3.88;;
32323;SDS011;25666;44.350;9.222;2023-03-01T08:19:39;12.48;;;3.63;;
32323;SDS011;25666;44.350;9.222;2023-03-01T08:22:04;9.25;;;3.83;;
32323;SDS011;25666;44.350;9.222;2023-03-01T08:24:30;10.05;;;4.10;;
32323;SDS011;25666;44.350;9.222;2023-03-01T08:26:55;7.85;;;3.38;;
32323;SDS011;25666;44.350;9.222;2023-03-01T08:29:21;8.10;;;4.00;;
32323;SDS011;25666;44.350;9.222;2023-03-01T08:31:47;5.82;;;3.55;;
32323;SDS011;25666;44.350;9.222;2023-03-01T08:34:14;5.38;;;3.58;;
32323;SDS011;25666;44.350;9.222;2023-03-01T08:36:41;6.93;;;3.58;;
32323;SDS011;25666;44.350;9.222;2023-03-01T08:39:09;5.82;;;2.85;;
32323;SDS011;25666;44.350;9.222;2023-03-01T08:41:36;8.23;;;4.15;;
32323;SDS011;25666;44.350;9.222;2023-03-01T08:44:02;11.23;;;4.05;;
32323;SDS011;25666;44.350;9.222;2023-03-01T08:46:30;9.50;;;3.97;;
32323;SDS011;25666;44.350;9.222;2023-03-01T08:48:57;7.13;;;3.60;;
32323;SDS011;25666;44.350;9.222;2023-03-01T08:51:22;6.93;;;3.55;;
32323;SDS011;25666;44.350;9.222;2023-03-01T08:53:49;11.13;;;3.95;;
32323;SDS011;25666;44.350;9.222;2023-03-01T08:56:15;9.15;;;3.60;;
32323;SDS011;25666;44.350;9.222;2023-03-01T08:58:45;16.55;;;4.22;;
32323;SDS011;25666;44.350;9.222;2023-03-01T09:01:13;9.90;;;4.03;;
32323;SDS011;25666;44.350;9.222;2023-03-01T09:03:40;10.32;;;4.30;;
32323;SDS011;25666;44.350;9.222;2023-03-01T09:06:06;9.40;;;3.90;;
32323;SDS011;25666;44.350;9.222;2023-03-01T09:08:37;10.75;;;3.92;;
32323;SDS011;25666;44.350;9.222;2023-03-01T09:11:04;7.40;;;4.18;;
32323;SDS011;25666;44.350;9.222;2023-03-01T09:13:31;6.03;;;3.42;;
32323;SDS011;25666;44.350;9.222;2023-03-01T09:15:57;11.90;;;4.18;;
32323;SDS011;25666;44.350;9.222;2023-03-01T09:18:23;14.77;;;4.50;;
32323;SDS011;25666;44.350;9.222;2023-03-01T09:20:48;8.38;;;4.03;;
32323;SDS011;25666;44.350;9.222;2023-03-01T09:23:14;14.75;;;4.45;;
32323;SDS011;25666;44.350;9.222;2023-03-01T09:25:39;10.57;;;4.00;;
32323;SDS011;25666;44.350;9.222;2023-03-01T09:28:05;11.25;;;4.38;;
32323;SDS011;25666;44.350;9.222;2023-03-01T09:30:30;10.40;;;4.70;;
32323;SDS011;25666;44.350;9.222;2023-03-01T09:32:56;9.52;;;4.38;;
32323;SDS011;25666;44.350;9.222;2023-03-01T09:35:22;9.18;;;3.97;;
32323;SDS011;25666;44.350;9.222;2023-03-01T09:37:48;8.23;;;4.13;;
32323;SDS011;25666;44.350;9.222;2023-03-01T09:40:19;9.90;;;4.22;;
32323;SDS011;25666;44.350;9.222;2023-03-01T09:42:59;7.25;;;4.20;;
32323;SDS011;25666;44.350;9.222;2023-03-01T09:45:46;8.60;;;4.30;;
32323;SDS011;25666;44.350;9.222;2023-03-01T09:48:18;10.82;;;3.65;;
32323;SDS011;25666;44.350;9.222;2023-03-01T09:50:48;9.88;;;4.38;;
32323;SDS011;25666;44.350;9.222;2023-03-01T09:53:16;8.13;;;4.15;;
32323;SDS011;25666;44.350;9.222;2023-03-01T09:55:44;7.43;;;3.75;;
32323;SDS011;25666;44.350;9.222;2023-03-01T10:01:50;8.80;;;3.75;;
32323;SDS011;25666;44.350;9.222;2023-03-01T10:06:34;7.75;;;4.07;;
32323;SDS011;25666;44.350;9.222;2023-03-01T10:09:05;10.68;;;3.85;;
32323;SDS011;25666;44.350;9.222;2023-03-01T10:11:41;9.85;;;3.72;;
32323;SDS011;25666;44.350;9.222;2023-03-01T10:22:46;7.60;;;4.13;;
32323;SDS011;25666;44.350;9.222;2023-03-01T10:25:15;8.00;;;4.15;;
32323;SDS011;25666;44.350;9.222;2023-03-01T10:33:08;10.98;;;5.45;;
32323;SDS011;25666;44.350;9.222;2023-03-01T10:35:42;12.68;;;4.35;;
32323;SDS011;25666;44.350;9.222;2023-03-01T10:38:08;9.80;;;4.28;;
32323;SDS011;25666;44.350;9.222;2023-03-01T10:40:36;12.15;;;5.15;;
32323;SDS011;25666;44.350;9.222;2023-03-01T10:43:17;9.17;;;4.60;;
32323;SDS011;25666;44.350;9.222;2023-03-01T10:45:42;13.25;;;5.18;;
32323;SDS011;25666;44.350;9.222;2023-03-01T10:50:45;8.88;;;4.20;;
32323;SDS011;25666;44.350;9.222;2023-03-01T10:53:32;13.30;;;5.70;;
32323;SDS011;25666;44.350;9.222;2023-03-01T10:56:12;10.85;;;5.75;;
32323;SDS011;25666;44.350;9.222;2023-03-01T10:58:40;10.45;;;4.97;;
32323;SDS011;25666;44.350;9.222;2023-03-01T11:01:35;8.82;;;5.43;;
32323;SDS011;25666;44.350;9.222;2023-03-01T11:06:33;14.73;;;5.75;;
32323;SDS011;25666;44.350;9.222;2023-03-01T11:09:17;11.68;;;5.90;;
32323;SDS011;25666;44.350;9.222;2023-03-01T11:11:51;14.35;;;6.00;;
32323;SDS011;25666;44.350;9.222;2023-03-01T11:14:20;10.68;;;5.75;;
32323;SDS011;25666;44.350;9.222;2023-03-01T11:17:12;18.38;;;5.95;;
32323;SDS011;25666;44.350;9.222;2023-03-01T11:19:42;12.38;;;6.13;;
32323;SDS011;25666;44.350;9.222;2023-03-01T11:22:11;11.60;;;6.15;;
32323;SDS011;25666;44.350;9.222;2023-03-01T11:24:52;10.50;;;6.10;;
32323;SDS011;25666;44.350;9.222;2023-03-01T11:27:24;12.73;;;5.50;;
32323;SDS011;25666;44.350;9.222;2023-03-01T11:30:04;10.70;;;5.75;;
32323;SDS011;25666;44.350;9.222;2023-03-01T11:35:31;13.73;;;6.60;;
32323;SDS011;25666;44.350;9.222;2023-03-01T11:40:33;14.40;;;6.88;;
32323;SDS011;25666;44.350;9.222;2023-03-01T11:43:05;13.75;;;6.63;;
32323;SDS011;25666;44.350;9.222;2023-03-01T11:45:39;16.90;;;6.57;;
32323;SDS011;25666;44.350;9.222;2023-03-01T11:50:52;12.57;;;6.95;;
32323;SDS011;25666;44.350;9.222;2023-03-01T11:56:27;11.30;;;6.45;;
32323;SDS011;25666;44.350;9.222;2023-03-01T11:59:02;12.30;;;6.75;;
32323;SDS011;25666;44.350;9.222;2023-03-01T12:01:53;13.27;;;7.47;;
32323;SDS011;25666;44.350;9.222;2023-03-01T12:12:33;11.00;;;6.03;;
32323;SDS011;25666;44.350;9.222;2023-03-01T12:15:23;12.88;;;6.78;;
32323;SDS011;25666;44.350;9.222;2023-03-01T12:26:18;14.10;;;6.88;;
32323;SDS011;25666;44.350;9.222;2023-03-01T12:29:02;18.20;;;6.88;;
32323;SDS011;25666;44.350;9.222;2023-03-01T12:35:09;15.20;;;6.10;;
32323;SDS011;25666;44.350;9.222;2023-03-01T12:38:01;15.35;;;7.40;;
32323;SDS011;25666;44.350;9.222;2023-03-01T12:43:26;20.23;;;7.55;;
32323;SDS011;25666;44.350;9.222;2023-03-01T12:46:25;12.73;;;6.38;;
32323;SDS011;25666;44.350;9.222;2023-03-01T12:49:07;13.60;;;6.80;;
32323;SDS011;25666;44.350;9.222;2023-03-01T12:51:59;25.45;;;7.20;;
32323;SDS011;25666;44.350;9.222;2023-03-01T12:54:38;16.75;;;7.75;;
32323;SDS011;25666;44.350;9.222;2023-03-01T12:57:09;13.75;;;7.13;;
32323;SDS011;25666;44.350;9.222;2023-03-01T13:02:38;15.82;;;7.63;;
32323;SDS011;25666;44.350;9.222;2023-03-01T13:05:24;12.10;;;6.95;;
32323;SDS011;25666;44.350;9.222;2023-03-01T13:07:55;14.57;;;7.70;;
32323;SDS011;25666;44.350;9.222;2023-03-01T13:10:47;15.88;;;9.13;;
32323;SDS011;25666;44.350;9.222;2023-03-01T13:13:22;20.60;;;7.82;;
32323;SDS011;25666;44.350;9.222;2023-03-01T13:15:51;13.43;;;7.15;;
32323;SDS011;25666;44.350;9.222;2023-03-01T13:20:55;13.85;;;7.28;;
32323;SDS011;25666;44.350;9.222;2023-03-01T13:28:41;19.92;;;7.57;;
32323;SDS011;25666;44.350;9.222;2023-03-01T13:33:46;14.52;;;7.13;;
32323;SDS011;25666;44.350;9.222;2023-03-01T13:36:45;15.77;;;8.82;;
32323;SDS011;25666;44.350;9.222;2023-03-01T13:41:52;16.67;;;8.60;;
32323;SDS011;25666;44.350;9.222;2023-03-01T13:46:45;14.60;;;8.93;;
32323;SDS011;25666;44.350;9.222;2023-03-01T13:49:16;16.13;;;7.85;;
32323;SDS011;25666;44.350;9.222;2023-03-01T13:51:48;14.30;;;7.30;;
32323;SDS011;25666;44.350;9.222;2023-03-01T13:54:16;20.92;;;9.43;;
32323;SDS011;25666;44.350;9.222;2023-03-01T13:56:45;23.83;;;11.57;;
32323;SDS011;25666;44.350;9.222;2023-03-01T13:59:16;16.85;;;9.00;;
32323;SDS011;25666;44.350;9.222;2023-03-01T14:01:43;20.40;;;9.00;;
32323;SDS011;25666;44.350;9.222;2023-03-01T14:04:41;14.25;;;7.72;;
32323;SDS011;25666;44.350;9.222;2023-03-01T14:09:41;15.02;;;6.03;;
32323;SDS011;25666;44.350;9.222;2023-03-01T14:15:04;5.72;;;4.10;;
32323;SDS011;25666;44.350;9.222;2023-03-01T14:17:40;8.55;;;4.38;;
32323;SDS011;25666;44.350;9.222;2023-03-01T14:22:46;7.40;;;4.20;;
32323;SDS011;25666;44.350;9.222;2023-03-01T14:25:19;7.35;;;3.38;;
32323;SDS011;25666;44.350;9.222;2023-03-01T14:27:56;6.10;;;3.65;;
32323;SDS011;25666;44.350;9.222;2023-03-01T14:30:23;9.15;;;4.55;;
32323;SDS011;25666;44.350;9.222;2023-03-01T14:33:02;5.80;;;3.95;;
32323;SDS011;25666;44.350;9.222;2023-03-01T14:35:34;7.43;;;3.30;;
32323;SDS011;25666;44.350;9.222;2023-03-01T14:38:37;6.70;;;3.67;;
32323;SDS011;25666;44.350;9.222;2023-03-01T14:41:08;7.72;;;3.60;;
32323;SDS011;25666;44.350;9.222;2023-03-01T14:43:41;5.80;;;3.85;;
32323;SDS011;25666;44.350;9.222;2023-03-01T14:46:19;10.00;;;4.57;;
32323;SDS011;25666;44.350;9.222;2023-03-01T14:49:13;5.63;;;3.50;;
32323;SDS011;25666;44.350;9.222;2023-03-01T14:51:43;6.07;;;3.83;;
32323;SDS011;25666;44.350;9.222;2023-03-01T14:57:13;8.27;;;4.15;;
32323;SDS011;25666;44.350;9.222;2023-03-01T14:59:44;9.65;;;4.85;;
32323;SDS011;25666;44.350;9.222;2023-03-01T15:02:15;6.65;;;4.93;;
32323;SDS011;25666;44.350;9.222;2023-03-01T15:04:47;7.53;;;4.70;;
32323;SDS011;25666;44.350;9.222;2023-03-01T15:07:16;5.38;;;4.07;;
32323;SDS011;25666;44.350;9.222;2023-03-01T15:09:42;7.82;;;5.15;;
32323;SDS011;25666;44.350;9.222;2023-03-01T15:14:52;6.35;;;3.72;;
32323;SDS011;25666;44.350;9.222;2023-03-01T15:17:20;5.32;;;3.85;;
32323;SDS011;25666;44.350;9.222;2023-03-01T15:20:03;6.57;;;4.38;;
32323;SDS011;25666;44.350;9.222;2023-03-01T15:22:31;5.00;;;3.85;;
32323;SDS011;25666;44.350;9.222;2023-03-01T15:24:57;5.50;;;3.85;;
32323;SDS011;25666;44.350;9.222;2023-03-01T15:27:24;5.15;;;3.58;;
32323;SDS011;25666;44.350;9.222;2023-03-01T15:32:34;6.63;;;4.63;;
32323;SDS011;25666;44.350;9.222;2023-03-01T15:38:29;7.38;;;4.72;;
32323;SDS011;25666;44.350;9.222;2023-03-01T15:40:56;7.28;;;4.20;;
32323;SDS011;25666;44.350;9.222;2023-03-01T15:43:39;5.57;;;4.15;;
32323;SDS011;25666;44.350;9.222;2023-03-01T15:46:23;6.47;;;4.53;;
32323;SDS011;25666;44.350;9.222;2023-03-01T15:48:59;8.65;;;4.88;;
32323;SDS011;25666;44.350;9.222;2023-03-01T15:51:36;7.55;;;4.78;;
32323;SDS011;25666;44.350;9.222;2023-03-01T15:54:24;8.63;;;5.60;;
32323;SDS011;25666;44.350;9.222;2023-03-01T15:56:49;11.70;;;5.63;;
32323;SDS011;25666;44.350;9.222;2023-03-01T15:59:16;12.60;;;4.82;;
32323;SDS011;25666;44.350;9.222;2023-03-01T16:01:41;6.88;;;4.72;;
32323;SDS011;25666;44.350;9.222;2023-03-01T16:04:09;9.77;;;4.82;;
32323;SDS011;25666;44.350;9.222;2023-03-01T16:06:38;9.60;;;5.67;;
32323;SDS011;25666;44.350;9.222;2023-03-01T16:09:04;7.50;;;4.80;;
32323;SDS011;25666;44.350;9.222;2023-03-01T16:11:30;10.60;;;6.07;;
32323;SDS011;25666;44.350;9.222;2023-03-01T16:13:57;8.60;;;5.47;;
32323;SDS011;25666;44.350;9.222;2023-03-01T16:16:23;9.48;;;5.65;;
32323;SDS011;25666;44.350;9.222;2023-03-01T16:18:48;19.27;;;6.13;;
32323;SDS011;25666;44.350;9.222;2023-03-01T16:21:23;10.57;;;6.03;;
32323;SDS011;25666;44.350;9.222;2023-03-01T16:23:54;10.73;;;5.28;;
32323;SDS011;25666;44.350;9.222;2023-03-01T16:26:20;8.98;;;5.53;;
32323;SDS011;25666;44.350;9.222;2023-03-01T16:28:45;10.23;;;5.78;;
32323;SDS011;25666;44.350;9.222;2023-03-01T16:31:11;14.07;;;6.50;;
32323;SDS011;25666;44.350;9.222;2023-03-01T16:33:39;12.38;;;6.88;;
32323;SDS011;25666;44.350;9.222;2023-03-01T16:36:08;11.90;;;6.72;;
32323;SDS011;25666;44.350;9.222;2023-03-01T16:38:35;10.20;;;5.90;;
32323;SDS011;25666;44.350;9.222;2023-03-01T16:41:01;8.63;;;5.38;;
32323;SDS011;25666;44.350;9.222;2023-03-01T16:43:26;11.43;;;6.82;;